sensor_id;sensor_type;location;lat;lon;timestamp;P1;durP1;ratioP1;P2;durP2;ratioP2
1925;SDS011;964;42.606;23.588;2023-02-01T00:00:52;1.87;;;1.77;;
1925;SDS011;964;42.606;23.588;2023-02-01T00:03:18;3.93;;;2.83;;
1925;SDS011;964;42.606;23.588;2023-02-01T00:05:54;3.50;;;2.80;;
1925;SDS011;964;42.606;23.588;2023-02-01T00:08:21;7.03;;;3.97;;
1925;SDS011;964;42.606;23.588;2023-02-01T00:10:56;6.60;;;4.23;;
1925;SDS011;964;42.606;23.588;2023-02-01T00:13:24;4.67;;;3.93;;
1925;SDS011;964;42.606;23.588;2023-02-01T00:15:50;3.10;;;2.37;;
1925;SDS011;964;42.606;23.588;2023-02-01T00:18:17;3.63;;;2.47;;
1925;SDS011;964;42.606;23.588;2023-02-01T00:20:45;2.90;;;2.40;;
1925;SDS011;964;42.606;23.588;2023-02-01T00:23:12;1.47;;;1.37;;
1925;SDS011;964;42.606;23.588;2023-02-01T00:25:38;4.57;;;3.70;;
1925;SDS011;964;42.606;23.588;2023-02-01T00:28:07;4.20;;;3.17;;
1925;SDS011;964;42.606;23.588;2023-02-01T00:30:33;3.73;;;3.33;;
1925;SDS011;964;42.606;23.588;2023-02-01T00:33:00;5.33;;;2.77;;
1925;SDS011;964;42.606;23.588;2023-02-01T00:35:27;3.40;;;2.70;;
1925;SDS011;964;42.606;23.588;2023-02-01T00:37:53;7.67;;;4.90;;
1925;SDS011;964;42.606;23.588;2023-02-01T00:40:20;6.70;;;5.30;;
1925;SDS011;964;42.606;23.588;2023-02-01T00:42:47;3.47;;;3.17;;
1925;SDS011;964;42.606;23.588;2023-02-01T00:45:15;2.97;;;2.77;;
1925;SDS011;964;42.606;23.588;2023-02-01T00:47:42;7.63;;;2.80;;
1925;SDS011;964;42.606;23.588;2023-02-01T00:50:09;5.97;;;4.63;;
1925;SDS011;964;42.606;23.588;2023-02-01T00:52:36;3.87;;;3.40;;
1925;SDS011;964;42.606;23.588;2023-02-01T00:55:03;8.60;;;3.90;;
1925;SDS011;964;42.606;23.588;2023-02-01T00:57:30;5.10;;;3.53;;
1925;SDS011;964;42.606;23.588;2023-02-01T00:59:57;4.10;;;3.10;;
1925;SDS011;964;42.606;23.588;2023-02-01T01:02:26;6.73;;;3.97;;
1925;SDS011;964;42.606;23.588;2023-02-01T01:04:53;3.83;;;2.90;;
1925;SDS011;964;42.606;23.588;2023-02-01T01:07:20;3.67;;;3.20;;
1925;SDS011;964;42.606;23.588;2023-02-01T01:09:47;5.23;;;3.63;;
1925;SDS011;964;42.606;23.588;2023-02-01T01:12:13;4.23;;;3.83;;
1925;SDS011;964;42.606;23.588;2023-02-01T01:14:40;7.83;;;3.57;;
1925;SDS011;964;42.606;23.588;2023-02-01T01:17:06;4.87;;;3.20;;
1925;SDS011;964;42.606;23.588;2023-02-01T01:19:34;2.90;;;2.60;;
1925;SDS011;964;42.606;23.588;2023-02-01T01:22:01;8.33;;;4.10;;
1925;SDS011;964;42.606;23.588;2023-02-01T01:24:28;6.27;;;4.27;;
1925;SDS011;964;42.606;23.588;2023-02-01T01:26:55;4.33;;;3.57;;
1925;SDS011;964;42.606;23.588;2023-02-01T01:29:21;2.87;;;2.40;;
1925;SDS011;964;42.606;23.588;2023-02-01T01:31:48;6.10;;;2.87;;
1925;SDS011;964;42.606;23.588;2023-02-01T01:34:15;4.70;;;3.70;;
1925;SDS011;964;42.606;23.588;2023-02-01T01:36:43;4.43;;;4.03;;
1925;SDS011;964;42.606;23.588;2023-02-01T01:39:09;2.73;;;2.30;;
1925;SDS011;964;42.606;23.588;2023-02-01T01:41:36;2.37;;;1.80;;
1925;SDS011;964;42.606;23.588;2023-02-01T01:44:03;3.43;;;2.83;;
1925;SDS011;964;42.606;23.588;2023-02-01T01:46:32;2.27;;;2.07;;
1925;SDS011;964;42.606;23.588;2023-02-01T01:49:02;3.33;;;2.33;;
1925;SDS011;964;42.606;23.588;2023-02-01T01:51:35;5.40;;;2.33;;
1925;SDS011;964;42.606;23.588;2023-02-01T01:54:07;3.37;;;2.70;;
1925;SDS011;964;42.606;23.588;2023-02-01T01:56:38;3.07;;;2.80;;
1925;SDS011;964;42.606;23.588;2023-02-01T01:59:06;5.23;;;2.73;;
1925;SDS011;964;42.606;23.588;2023-02-01T02:01:33;8.77;;;2.17;;
1925;SDS011;964;42.606;23.588;2023-02-01T02:04:00;1.73;;;1.60;;
1925;SDS011;964;42.606;23.588;2023-02-01T02:06:30;3.67;;;2.70;;
1925;SDS011;964;42.606;23.588;2023-02-01T02:09:03;1.93;;;1.77;;
1925;SDS011;964;42.606;23.588;2023-02-01T02:11:32;4.57;;;2.60;;
1925;SDS011;964;42.606;23.588;2023-02-01T02:13:59;3.30;;;2.67;;
1925;SDS011;964;42.606;23.588;2023-02-01T02:16:33;3.27;;;2.07;;
1925;SDS011;964;42.606;23.588;2023-02-01T02:19:16;5.13;;;2.70;;
1925;SDS011;964;42.606;23.588;2023-02-01T02:22:23;3.00;;;2.70;;
1925;SDS011;964;42.606;23.588;2023-02-01T02:28:30;4.30;;;2.00;;
1925;SDS011;964;42.606;23.588;2023-02-01T02:31:31;1.90;;;1.50;;
1925;SDS011;964;42.606;23.588;2023-02-01T02:34:15;4.37;;;3.07;;
1925;SDS011;964;42.606;23.588;2023-02-01T02:36:51;2.67;;;2.47;;
1925;SDS011;964;42.606;23.588;2023-02-01T02:39:30;2.23;;;2.00;;
1925;SDS011;964;42.606;23.588;2023-02-01T02:42:07;2.83;;;2.50;;
1925;SDS011;964;42.606;23.588;2023-02-01T02:44:58;2.90;;;2.60;;
1925;SDS011;964;42.606;23.588;2023-02-01T02:47:50;4.10;;;2.00;;
1925;SDS011;964;42.606;23.588;2023-02-01T02:50:24;3.60;;;2.50;;
1925;SDS011;964;42.606;23.588;2023-02-01T02:53:13;2.50;;;1.60;;
1925;SDS011;964;42.606;23.588;2023-02-01T02:56:00;2.83;;;2.50;;
1925;SDS011;964;42.606;23.588;2023-02-01T02:58:46;5.80;;;3.13;;
1925;SDS011;964;42.606;23.588;2023-02-01T03:01:32;3.10;;;2.17;;
1925;SDS011;964;42.606;23.588;2023-02-01T03:04:17;8.07;;;2.33;;
1925;SDS011;964;42.606;23.588;2023-02-01T03:06:46;2.60;;;1.93;;
1925;SDS011;964;42.606;23.588;2023-02-01T03:09:13;6.73;;;2.97;;
1925;SDS011;964;42.606;23.588;2023-02-01T03:11:46;3.57;;;2.90;;
1925;SDS011;964;42.606;23.588;2023-02-01T03:14:35;2.60;;;2.40;;
1925;SDS011;964;42.606;23.588;2023-02-01T03:17:05;2.40;;;2.17;;
1925;SDS011;964;42.606;23.588;2023-02-01T03:19:39;2.47;;;1.70;;
1925;SDS011;964;42.606;23.588;2023-02-01T03:22:15;2.10;;;1.90;;
1925;SDS011;964;42.606;23.588;2023-02-01T03:24:46;3.30;;;2.40;;
1925;SDS011;964;42.606;23.588;2023-02-01T03:27:17;3.00;;;2.30;;
1925;SDS011;964;42.606;23.588;2023-02-01T03:29:48;3.00;;;2.33;;
1925;SDS011;964;42.606;23.588;2023-02-01T03:32:18;2.43;;;2.13;;
1925;SDS011;964;42.606;23.588;2023-02-01T03:34:45;6.43;;;2.70;;
1925;SDS011;964;42.606;23.588;2023-02-01T03:37:16;5.57;;;2.30;;
1925;SDS011;964;42.606;23.588;2023-02-01T03:39:49;3.20;;;2.87;;
1925;SDS011;964;42.606;23.588;2023-02-01T03:42:24;7.20;;;3.33;;
1925;SDS011;964;42.606;23.588;2023-02-01T03:44:56;2.97;;;2.67;;
1925;SDS011;964;42.606;23.588;2023-02-01T03:47:28;3.40;;;3.10;;
1925;SDS011;964;42.606;23.588;2023-02-01T03:49:58;2.43;;;2.23;;
1925;SDS011;964;42.606;23.588;2023-02-01T03:52:34;2.63;;;1.93;;
1925;SDS011;964;42.606;23.588;2023-02-01T03:55:06;2.53;;;2.33;;
1925;SDS011;964;42.606;23.588;2023-02-01T03:57:35;1.40;;;1.10;;
1925;SDS011;964;42.606;23.588;2023-02-01T04:00:09;5.03;;;1.83;;
1925;SDS011;964;42.606;23.588;2023-02-01T04:02:42;8.70;;;2.03;;
1925;SDS011;964;42.606;23.588;2023-02-01T04:05:09;2.20;;;2.10;;
1925;SDS011;964;42.606;23.588;2023-02-01T04:07:37;1.97;;;1.83;;
1925;SDS011;964;42.606;23.588;2023-02-01T04:10:04;3.00;;;2.10;;
1925;SDS011;964;42.606;23.588;2023-02-01T04:12:31;3.13;;;2.47;;
1925;SDS011;964;42.606;23.588;2023-02-01T04:14:58;2.60;;;1.53;;
1925;SDS011;964;42.606;23.588;2023-02-01T04:17:24;3.83;;;2.50;;
1925;SDS011;964;42.606;23.588;2023-02-01T04:19:51;1.80;;;1.50;;
1925;SDS011;964;42.606;23.588;2023-02-01T04:22:18;2.27;;;1.50;;
1925;SDS011;964;42.606;23.588;2023-02-01T04:24:46;3.87;;;2.23;;
1925;SDS011;964;42.606;23.588;2023-02-01T04:27:13;1.63;;;1.53;;
1925;SDS011;964;42.606;23.588;2023-02-01T04:29:40;2.50;;;1.70;;
1925;SDS011;964;42.606;23.588;2023-02-01T04:32:07;3.33;;;3.00;;
1925;SDS011;964;42.606;23.588;2023-02-01T04:34:34;2.53;;;1.73;;
1925;SDS011;964;42.606;23.588;2023-02-01T04:37:00;2.30;;;2.10;;
1925;SDS011;964;42.606;23.588;2023-02-01T04:39:27;2.27;;;1.57;;
1925;SDS011;964;42.606;23.588;2023-02-01T04:41:55;1.63;;;1.53;;
1925;SDS011;964;42.606;23.588;2023-02-01T04:44:22;2.50;;;1.63;;
1925;SDS011;964;42.606;23.588;2023-02-01T04:46:48;3.30;;;1.73;;
1925;SDS011;964;42.606;23.588;2023-02-01T04:49:15;2.97;;;2.47;;
1925;SDS011;964;42.606;23.588;2023-02-01T04:51:42;2.97;;;2.13;;
1925;SDS011;964;42.606;23.588;2023-02-01T04:54:09;1.87;;;1.77;;
1925;SDS011;964;42.606;23.588;2023-02-01T04:56:37;2.60;;;1.80;;
1925;SDS011;964;42.606;23.588;2023-02-01T04:59:05;7.67;;;3.10;;
1925;SDS011;964;42.606;23.588;2023-02-01T05:01:32;6.63;;;2.83;;
1925;SDS011;964;42.606;23.588;2023-02-01T05:03:59;2.30;;;1.50;;
1925;SDS011;964;42.606;23.588;2023-02-01T05:06:26;4.43;;;2.70;;
1925;SDS011;964;42.606;23.588;2023-02-01T05:08:52;2.87;;;2.57;;
1925;SDS011;964;42.606;23.588;2023-02-01T05:11:19;4.03;;;1.83;;
1925;SDS011;964;42.606;23.588;2023-02-01T05:14:10;3.97;;;2.47;;
1925;SDS011;964;42.606;23.588;2023-02-01T05:16:36;1.73;;;1.30;;
1925;SDS011;964;42.606;23.588;2023-02-01T05:19:03;2.67;;;2.47;;
1925;SDS011;964;42.606;23.588;2023-02-01T05:21:30;5.13;;;2.30;;
1925;SDS011;964;42.606;23.588;2023-02-01T05:23:56;7.73;;;3.93;;
1925;SDS011;964;42.606;23.588;2023-02-01T05:26:45;2.30;;;1.80;;
1925;SDS011;964;42.606;23.588;2023-02-01T05:29:13;1.60;;;1.50;;
1925;SDS011;964;42.606;23.588;2023-02-01T05:31:41;2.07;;;1.87;;
1925;SDS011;964;42.606;23.588;2023-02-01T05:34:10;6.73;;;2.50;;
1925;SDS011;964;42.606;23.588;2023-02-01T05:36:38;4.20;;;3.07;;
1925;SDS011;964;42.606;23.588;2023-02-01T05:39:05;4.23;;;2.80;;
1925;SDS011;964;42.606;23.588;2023-02-01T05:41:31;3.93;;;2.67;;
1925;SDS011;964;42.606;23.588;2023-02-01T05:43:58;2.10;;;1.77;;
1925;SDS011;964;42.606;23.588;2023-02-01T05:46:26;2.20;;;1.90;;
1925;SDS011;964;42.606;23.588;2023-02-01T05:48:53;10.13;;;2.07;;
1925;SDS011;964;42.606;23.588;2023-02-01T05:51:19;1.70;;;1.60;;
1925;SDS011;964;42.606;23.588;2023-02-01T05:53:46;3.60;;;2.30;;
1925;SDS011;964;42.606;23.588;2023-02-01T05:56:13;2.80;;;2.53;;
1925;SDS011;964;42.606;23.588;2023-02-01T05:58:39;3.40;;;2.27;;
1925;SDS011;964;42.606;23.588;2023-02-01T06:01:06;2.50;;;2.30;;
1925;SDS011;964;42.606;23.588;2023-02-01T06:03:34;3.60;;;2.67;;
1925;SDS011;964;42.606;23.588;2023-02-01T06:06:01;3.73;;;3.20;;
1925;SDS011;964;42.606;23.588;2023-02-01T06:08:29;5.10;;;2.47;;
1925;SDS011;964;42.606;23.588;2023-02-01T06:10:59;2.70;;;2.50;;
1925;SDS011;964;42.606;23.588;2023-02-01T06:13:27;4.33;;;3.20;;
1925;SDS011;964;42.606;23.588;2023-02-01T06:15:53;3.70;;;2.50;;
1925;SDS011;964;42.606;23.588;2023-02-01T06:18:22;6.27;;;3.33;;
1925;SDS011;964;42.606;23.588;2023-02-01T06:20:53;5.70;;;3.53;;
1925;SDS011;964;42.606;23.588;2023-02-01T06:23:20;3.50;;;2.57;;
1925;SDS011;964;42.606;23.588;2023-02-01T06:25:49;6.50;;;2.70;;
1925;SDS011;964;42.606;23.588;2023-02-01T06:28:17;3.33;;;3.00;;
1925;SDS011;964;42.606;23.588;2023-02-01T06:30:44;3.43;;;2.23;;
1925;SDS011;964;42.606;23.588;2023-02-01T06:33:11;3.17;;;2.83;;
1925;SDS011;964;42.606;23.588;2023-02-01T06:35:39;6.27;;;4.27;;
1925;SDS011;964;42.606;23.588;2023-02-01T06:38:08;8.33;;;3.27;;
1925;SDS011;964;42.606;23.588;2023-02-01T06:40:35;4.60;;;3.67;;
1925;SDS011;964;42.606;23.588;2023-02-01T06:43:02;8.90;;;4.27;;
1925;SDS011;964;42.606;23.588;2023-02-01T06:45:28;6.10;;;4.03;;
1925;SDS011;964;42.606;23.588;2023-02-01T06:47:55;11.53;;;4.40;;
1925;SDS011;964;42.606;23.588;2023-02-01T06:50:22;3.70;;;3.30;;
1925;SDS011;964;42.606;23.588;2023-02-01T06:52:49;7.07;;;4.17;;
1925;SDS011;964;42.606;23.588;2023-02-01T06:55:17;5.97;;;4.63;;
1925;SDS011;964;42.606;23.588;2023-02-01T06:57:43;6.97;;;4.17;;
1925;SDS011;964;42.606;23.588;2023-02-01T07:00:11;7.47;;;4.10;;
1925;SDS011;964;42.606;23.588;2023-02-01T07:02:38;5.17;;;3.90;;
1925;SDS011;964;42.606;23.588;2023-02-01T07:05:05;5.73;;;4.70;;
1925;SDS011;964;42.606;23.588;2023-02-01T07:07:32;6.27;;;3.90;;
1925;SDS011;964;42.606;23.588;2023-02-01T07:09:58;5.00;;;4.20;;
1925;SDS011;964;42.606;23.588;2023-02-01T07:12:26;5.53;;;4.07;;
1925;SDS011;964;42.606;23.588;2023-02-01T07:14:53;7.03;;;5.20;;
1925;SDS011;964;42.606;23.588;2023-02-01T07:17:20;7.40;;;4.27;;
1925;SDS011;964;42.606;23.588;2023-02-01T07:19:46;4.30;;;3.90;;
1925;SDS011;964;42.606;23.588;2023-02-01T07:22:15;4.53;;;3.03;;
1925;SDS011;964;42.606;23.588;2023-02-01T07:24:42;3.80;;;2.93;;
1925;SDS011;964;42.606;23.588;2023-02-01T07:27:09;4.07;;;2.83;;
1925;SDS011;964;42.606;23.588;2023-02-01T07:29:37;4.33;;;2.37;;
1925;SDS011;964;42.606;23.588;2023-02-01T07:32:04;4.33;;;3.10;;
1925;SDS011;964;42.606;23.588;2023-02-01T07:34:31;3.97;;;3.03;;
1925;SDS011;964;42.606;23.588;2023-02-01T07:36:58;4.70;;;2.60;;
1925;SDS011;964;42.606;23.588;2023-02-01T07:39:25;2.57;;;2.37;;
1925;SDS011;964;42.606;23.588;2023-02-01T07:41:53;3.00;;;2.73;;
1925;SDS011;964;42.606;23.588;2023-02-01T07:44:21;3.93;;;3.10;;
1925;SDS011;964;42.606;23.588;2023-02-01T07:46:50;4.90;;;2.07;;
1925;SDS011;964;42.606;23.588;2023-02-01T07:49:16;5.40;;;4.50;;
1925;SDS011;964;42.606;23.588;2023-02-01T07:51:43;5.27;;;2.50;;
1925;SDS011;964;42.606;23.588;2023-02-01T07:54:10;2.57;;;2.17;;
1925;SDS011;964;42.606;23.588;2023-02-01T07:56:37;4.13;;;2.20;;
1925;SDS011;964;42.606;23.588;2023-02-01T07:59:04;2.50;;;2.30;;
1925;SDS011;964;42.606;23.588;2023-02-01T08:01:32;2.53;;;1.50;;
1925;SDS011;964;42.606;23.588;2023-02-01T08:03:59;1.80;;;1.27;;
1925;SDS011;964;42.606;23.588;2023-02-01T08:06:27;6.23;;;2.27;;
1925;SDS011;964;42.606;23.588;2023-02-01T08:08:56;3.77;;;3.17;;
1925;SDS011;964;42.606;23.588;2023-02-01T08:11:23;5.53;;;2.50;;
1925;SDS011;964;42.606;23.588;2023-02-01T08:13:50;2.43;;;1.80;;
1925;SDS011;964;42.606;23.588;2023-02-01T08:16:18;2.30;;;1.93;;
1925;SDS011;964;42.606;23.588;2023-02-01T08:18:46;5.13;;;2.80;;
1925;SDS011;964;42.606;23.588;2023-02-01T08:21:15;2.97;;;2.23;;
1925;SDS011;964;42.606;23.588;2023-02-01T08:23:44;3.07;;;2.77;;
1925;SDS011;964;42.606;23.588;2023-02-01T08:26:11;3.50;;;2.30;;
1925;SDS011;964;42.606;23.588;2023-02-01T08:28:40;2.30;;;2.10;;
1925;SDS011;964;42.606;23.588;2023-02-01T08:31:09;2.40;;;2.17;;
1925;SDS011;964;42.606;23.588;2023-02-01T08:33:39;2.57;;;1.83;;
1925;SDS011;964;42.606;23.588;2023-02-01T08:36:07;1.63;;;1.53;;
1925;SDS011;964;42.606;23.588;2023-02-01T08:38:37;3.40;;;2.30;;
1925;SDS011;964;42.606;23.588;2023-02-01T08:41:05;3.80;;;1.87;;
1925;SDS011;964;42.606;23.588;2023-02-01T08:43:33;4.00;;;2.77;;
1925;SDS011;964;42.606;23.588;2023-02-01T08:46:00;4.70;;;2.30;;
1925;SDS011;964;42.606;23.588;2023-02-01T08:48:27;3.40;;;2.27;;
1925;SDS011;964;42.606;23.588;2023-02-01T08:50:53;2.57;;;2.00;;
1925;SDS011;964;42.606;23.588;2023-02-01T08:53:20;2.50;;;1.93;;
1925;SDS011;964;42.606;23.588;2023-02-01T08:55:49;4.40;;;2.27;;
1925;SDS011;964;42.606;23.588;2023-02-01T08:58:16;3.50;;;2.77;;
1925;SDS011;964;42.606;23.588;2023-02-01T09:00:43;2.33;;;2.17;;
1925;SDS011;964;42.606;23.588;2023-02-01T09:03:10;3.33;;;1.50;;
1925;SDS011;964;42.606;23.588;2023-02-01T09:05:38;1.83;;;1.73;;
1925;SDS011;964;42.606;23.588;2023-02-01T09:08:04;4.63;;;1.60;;
1925;SDS011;964;42.606;23.588;2023-02-01T09:10:31;2.00;;;1.90;;
1925;SDS011;964;42.606;23.588;2023-02-01T09:13:00;2.40;;;1.77;;
1925;SDS011;964;42.606;23.588;2023-02-01T09:15:28;3.50;;;2.20;;
1925;SDS011;964;42.606;23.588;2023-02-01T09:17:54;1.77;;;1.57;;
1925;SDS011;964;42.606;23.588;2023-02-01T09:20:21;2.17;;;1.80;;
1925;SDS011;964;42.606;23.588;2023-02-01T09:22:51;5.20;;;2.60;;
1925;SDS011;964;42.606;23.588;2023-02-01T09:25:18;3.13;;;2.00;;
1925;SDS011;964;42.606;23.588;2023-02-01T09:27:44;3.90;;;2.30;;
1925;SDS011;964;42.606;23.588;2023-02-01T09:30:13;3.90;;;2.67;;
1925;SDS011;964;42.606;23.588;2023-02-01T09:32:40;5.70;;;2.27;;
1925;SDS011;964;42.606;23.588;2023-02-01T09:35:06;3.57;;;2.17;;
1925;SDS011;964;42.606;23.588;2023-02-01T09:37:34;3.13;;;2.27;;
1925;SDS011;964;42.606;23.588;2023-02-01T09:40:01;2.20;;;1.83;;
1925;SDS011;964;42.606;23.588;2023-02-01T09:45:26;4.33;;;2.20;;
1925;SDS011;964;42.606;23.588;2023-02-01T09:47:59;4.60;;;2.67;;
1925;SDS011;964;42.606;23.588;2023-02-01T09:50:31;3.87;;;2.80;;
1925;SDS011;964;42.606;23.588;2023-02-01T09:53:01;2.30;;;2.10;;
1925;SDS011;964;42.606;23.588;2023-02-01T09:55:32;3.13;;;2.83;;
1925;SDS011;964;42.606;23.588;2023-02-01T09:58:05;4.17;;;2.60;;
1925;SDS011;964;42.606;23.588;2023-02-01T10:00:37;2.93;;;2.07;;
1925;SDS011;964;42.606;23.588;2023-02-01T10:03:07;2.70;;;1.97;;
1925;SDS011;964;42.606;23.588;2023-02-01T10:08:40;7.33;;;2.40;;
1925;SDS011;964;42.606;23.588;2023-02-01T10:11:23;3.87;;;2.70;;
1925;SDS011;964;42.606;23.588;2023-02-01T10:14:14;5.00;;;2.50;;
1925;SDS011;964;42.606;23.588;2023-02-01T10:17:08;4.40;;;2.87;;
1925;SDS011;964;42.606;23.588;2023-02-01T10:19:44;4.87;;;2.53;;
1925;SDS011;964;42.606;23.588;2023-02-01T10:22:22;2.50;;;1.87;;
1925;SDS011;964;42.606;23.588;2023-02-01T10:25:02;3.43;;;2.47;;
1925;SDS011;964;42.606;23.588;2023-02-01T10:27:34;4.80;;;2.53;;
1925;SDS011;964;42.606;23.588;2023-02-01T10:30:04;5.93;;;2.00;;
1925;SDS011;964;42.606;23.588;2023-02-01T10:32:39;3.70;;;2.47;;
1925;SDS011;964;42.606;23.588;2023-02-01T10:35:08;5.67;;;2.33;;
1925;SDS011;964;42.606;23.588;2023-02-01T10:37:39;2.50;;;2.30;;
1925;SDS011;964;42.606;23.588;2023-02-01T10:40:12;3.90;;;2.30;;
1925;SDS011;964;42.606;23.588;2023-02-01T10:42:44;2.00;;;1.70;;
1925;SDS011;964;42.606;23.588;2023-02-01T10:45:13;2.13;;;1.93;;
1925;SDS011;964;42.606;23.588;2023-02-01T10:47:44;2.50;;;1.83;;
1925;SDS011;964;42.606;23.588;2023-02-01T10:50:14;4.33;;;1.93;;
1925;SDS011;964;42.606;23.588;2023-02-01T10:52:48;3.80;;;1.97;;
1925;SDS011;964;42.606;23.588;2023-02-01T10:55:29;3.27;;;2.37;;
1925;SDS011;964;42.606;23.588;2023-02-01T10:58:01;3.10;;;2.40;;
1925;SDS011;964;42.606;23.588;2023-02-01T11:00:42;2.97;;;1.67;;
1925;SDS011;964;42.606;23.588;2023-02-01T11:06:00;2.70;;;2.47;;
1925;SDS011;964;42.606;23.588;2023-02-01T11:08:28;4.47;;;2.00;;
1925;SDS011;964;42.606;23.588;2023-02-01T11:10:59;4.90;;;2.60;;
1925;SDS011;964;42.606;23.588;2023-02-01T11:13:28;4.20;;;2.50;;
1925;SDS011;964;42.606;23.588;2023-02-01T11:15:57;4.77;;;1.87;;
1925;SDS011;964;42.606;23.588;2023-02-01T11:18:25;1.67;;;1.53;;
1925;SDS011;964;42.606;23.588;2023-02-01T11:20:55;2.67;;;1.53;;
1925;SDS011;964;42.606;23.588;2023-02-01T11:23:22;2.50;;;1.97;;
1925;SDS011;964;42.606;23.588;2023-02-01T11:25:52;2.30;;;1.73;;
1925;SDS011;964;42.606;23.588;2023-02-01T11:28:21;2.57;;;2.37;;
1925;SDS011;964;42.606;23.588;2023-02-01T11:30:51;2.53;;;1.67;;
1925;SDS011;964;42.606;23.588;2023-02-01T11:33:23;4.03;;;2.03;;
1925;SDS011;964;42.606;23.588;2023-02-01T11:35:56;4.33;;;1.77;;
1925;SDS011;964;42.606;23.588;2023-02-01T11:38:26;2.50;;;1.60;;
1925;SDS011;964;42.606;23.588;2023-02-01T11:40:55;2.33;;;1.10;;
1925;SDS011;964;42.606;23.588;2023-02-01T11:43:23;2.23;;;2.03;;
1925;SDS011;964;42.606;23.588;2023-02-01T11:45:56;2.57;;;1.70;;
1925;SDS011;964;42.606;23.588;2023-02-01T11:48:25;1.40;;;1.30;;
1925;SDS011;964;42.606;23.588;2023-02-01T11:50:57;1.53;;;1.13;;
1925;SDS011;964;42.606;23.588;2023-02-01T11:53:42;1.80;;;1.40;;
1925;SDS011;964;42.606;23.588;2023-02-01T11:56:23;1.30;;;1.20;;
1925;SDS011;964;42.606;23.588;2023-02-01T11:59:00;2.07;;;1.00;;
1925;SDS011;964;42.606;23.588;2023-02-01T12:01:42;2.00;;;1.20;;
1925;SDS011;964;42.606;23.588;2023-02-01T12:04:36;3.00;;;1.50;;
1925;SDS011;964;42.606;23.588;2023-02-01T12:07:16;3.40;;;1.80;;
1925;SDS011;964;42.606;23.588;2023-02-01T12:09:50;2.53;;;1.63;;
1925;SDS011;964;42.606;23.588;2023-02-01T12:12:31;3.13;;;1.40;;
1925;SDS011;964;42.606;23.588;2023-02-01T12:15:15;2.07;;;1.53;;
1925;SDS011;964;42.606;23.588;2023-02-01T12:18:01;1.97;;;1.77;;
1925;SDS011;964;42.606;23.588;2023-02-01T12:20:44;1.93;;;1.17;;
1925;SDS011;964;42.606;23.588;2023-02-01T12:23:28;1.37;;;1.27;;
1925;SDS011;964;42.606;23.588;2023-02-01T12:26:08;1.40;;;1.10;;
1925;SDS011;964;42.606;23.588;2023-02-01T12:28:55;1.53;;;1.10;;
1925;SDS011;964;42.606;23.588;2023-02-01T12:31:43;2.23;;;1.10;;
1925;SDS011;964;42.606;23.588;2023-02-01T12:34:27;1.23;;;1.10;;
1925;SDS011;964;42.606;23.588;2023-02-01T12:37:13;2.07;;;1.37;;
1925;SDS011;964;42.606;23.588;2023-02-01T12:39:52;2.93;;;1.80;;
1925;SDS011;964;42.606;23.588;2023-02-01T12:42:28;2.80;;;1.93;;
1925;SDS011;964;42.606;23.588;2023-02-01T12:44:59;1.53;;;1.23;;
1925;SDS011;964;42.606;23.588;2023-02-01T12:47:37;2.53;;;1.37;;
1925;SDS011;964;42.606;23.588;2023-02-01T12:50:12;3.00;;;1.30;;
1925;SDS011;964;42.606;23.588;2023-02-01T12:52:47;1.60;;;1.10;;
1925;SDS011;964;42.606;23.588;2023-02-01T12:55:17;1.67;;;1.20;;
1925;SDS011;964;42.606;23.588;2023-02-01T12:57:49;2.00;;;1.80;;
1925;SDS011;964;42.606;23.588;2023-02-01T13:00:22;1.77;;;1.27;;
1925;SDS011;964;42.606;23.588;2023-02-01T13:02:55;2.60;;;1.63;;
1925;SDS011;964;42.606;23.588;2023-02-01T13:05:31;1.67;;;1.57;;
1925;SDS011;964;42.606;23.588;2023-02-01T13:08:07;5.73;;;1.07;;
1925;SDS011;964;42.606;23.588;2023-02-01T13:10:40;1.40;;;1.17;;
1925;SDS011;964;42.606;23.588;2023-02-01T13:13:11;1.60;;;1.50;;
1925;SDS011;964;42.606;23.588;2023-02-01T13:15:46;1.63;;;1.33;;
1925;SDS011;964;42.606;23.588;2023-02-01T13:18:16;1.50;;;0.90;;
1925;SDS011;964;42.606;23.588;2023-02-01T13:20:47;2.40;;;1.30;;
1925;SDS011;964;42.606;23.588;2023-02-01T13:23:22;1.40;;;1.27;;
1925;SDS011;964;42.606;23.588;2023-02-01T13:25:54;2.67;;;1.50;;
1925;SDS011;964;42.606;23.588;2023-02-01T13:28:24;2.70;;;1.80;;
1925;SDS011;964;42.606;23.588;2023-02-01T13:31:03;1.80;;;1.70;;
1925;SDS011;964;42.606;23.588;2023-02-01T13:33:46;1.20;;;1.00;;
1925;SDS011;964;42.606;23.588;2023-02-01T13:36:32;3.00;;;1.40;;
1925;SDS011;964;42.606;23.588;2023-02-01T13:39:18;1.73;;;1.50;;
1925;SDS011;964;42.606;23.588;2023-02-01T13:42:15;2.00;;;1.33;;
1925;SDS011;964;42.606;23.588;2023-02-01T13:44:45;1.20;;;1.10;;
1925;SDS011;964;42.606;23.588;2023-02-01T13:47:19;1.30;;;1.20;;
1925;SDS011;964;42.606;23.588;2023-02-01T13:49:50;1.10;;;0.90;;
1925;SDS011;964;42.606;23.588;2023-02-01T13:52:26;1.70;;;1.60;;
1925;SDS011;964;42.606;23.588;2023-02-01T13:55:14;2.60;;;1.43;;
1925;SDS011;964;42.606;23.588;2023-02-01T13:58:02;2.53;;;1.30;;
1925;SDS011;964;42.606;23.588;2023-02-01T14:00:34;2.90;;;1.63;;
1925;SDS011;964;42.606;23.588;2023-02-01T14:03:09;1.20;;;1.10;;
1925;SDS011;964;42.606;23.588;2023-02-01T14:11:58;5.33;;;1.43;;
1925;SDS011;964;42.606;23.588;2023-02-01T14:15:21;1.63;;;1.40;;
1925;SDS011;964;42.606;23.588;2023-02-01T14:17:50;1.73;;;1.03;;
1925;SDS011;964;42.606;23.588;2023-02-01T14:23:22;0.90;;;0.80;;
1925;SDS011;964;42.606;23.588;2023-02-01T14:26:05;2.40;;;1.53;;
1925;SDS011;964;42.606;23.588;2023-02-01T14:28:36;1.97;;;1.20;;
1925;SDS011;964;42.606;23.588;2023-02-01T14:31:17;1.80;;;1.33;;
1925;SDS011;964;42.606;23.588;2023-02-01T14:34:00;4.70;;;1.80;;
1925;SDS011;964;42.606;23.588;2023-02-01T14:36:38;1.10;;;1.00;;
1925;SDS011;964;42.606;23.588;2023-02-01T14:39:18;1.70;;;1.30;;
1925;SDS011;964;42.606;23.588;2023-02-01T14:41:48;1.40;;;1.13;;
1925;SDS011;964;42.606;23.588;2023-02-01T14:44:24;2.17;;;1.40;;
1925;SDS011;964;42.606;23.588;2023-02-01T14:47:08;2.70;;;1.73;;
1925;SDS011;964;42.606;23.588;2023-02-01T14:50:02;1.30;;;1.17;;
1925;SDS011;964;42.606;23.588;2023-02-01T14:52:50;2.20;;;1.40;;
1925;SDS011;964;42.606;23.588;2023-02-01T14:55:25;2.70;;;1.30;;
1925;SDS011;964;42.606;23.588;2023-02-01T14:57:57;1.60;;;1.50;;
1925;SDS011;964;42.606;23.588;2023-02-01T15:00:28;2.30;;;1.10;;
1925;SDS011;964;42.606;23.588;2023-02-01T15:03:12;1.90;;;1.70;;
1925;SDS011;964;42.606;23.588;2023-02-01T15:05:54;10.03;;;1.50;;
1925;SDS011;964;42.606;23.588;2023-02-01T15:08:24;2.40;;;1.40;;
1925;SDS011;964;42.606;23.588;2023-02-01T15:10:53;1.60;;;1.40;;
1925;SDS011;964;42.606;23.588;2023-02-01T15:13:22;1.50;;;1.40;;
1925;SDS011;964;42.606;23.588;2023-02-01T15:16:03;1.63;;;1.53;;
1925;SDS011;964;42.606;23.588;2023-02-01T15:18:33;3.73;;;1.90;;
1925;SDS011;964;42.606;23.588;2023-02-01T15:21:00;3.77;;;1.87;;
1925;SDS011;964;42.606;23.588;2023-02-01T15:23:28;5.57;;;2.30;;
1925;SDS011;964;42.606;23.588;2023-02-01T15:25:55;1.57;;;1.47;;
1925;SDS011;964;42.606;23.588;2023-02-01T15:28:22;4.00;;;1.73;;
1925;SDS011;964;42.606;23.588;2023-02-01T15:30:54;2.50;;;1.60;;
1925;SDS011;964;42.606;23.588;2023-02-01T15:33:23;2.47;;;1.63;;
1925;SDS011;964;42.606;23.588;2023-02-01T15:35:52;2.40;;;2.00;;
1925;SDS011;964;42.606;23.588;2023-02-01T15:41:05;5.20;;;1.73;;
1925;SDS011;964;42.606;23.588;2023-02-01T15:43:35;2.93;;;1.87;;
1925;SDS011;964;42.606;23.588;2023-02-01T15:46:06;2.87;;;1.93;;
1925;SDS011;964;42.606;23.588;2023-02-01T15:48:36;2.43;;;2.23;;
1925;SDS011;964;42.606;23.588;2023-02-01T15:51:08;2.90;;;2.10;;
1925;SDS011;964;42.606;23.588;2023-02-01T15:53:42;2.50;;;2.07;;
1925;SDS011;964;42.606;23.588;2023-02-01T15:56:11;2.80;;;2.10;;
1925;SDS011;964;42.606;23.588;2023-02-01T15:58:40;2.90;;;1.80;;
1925;SDS011;964;42.606;23.588;2023-02-01T16:01:10;3.63;;;1.70;;
1925;SDS011;964;42.606;23.588;2023-02-01T16:03:39;3.70;;;2.50;;
1925;SDS011;964;42.606;23.588;2023-02-01T16:06:10;2.70;;;1.97;;